sensor_id;sensor_type;location;lat;lon;timestamp;pressure;altitude;pressure_sealevel;temperature;humidity
38630;BME280;24384;51.988;4.644;2023-10-31T00:01:45;99638.13;;;9.83;100.00
38630;BME280;24384;51.988;4.644;2023-10-31T00:04:10;99639.63;;;9.89;100.00
38630;BME280;24384;51.988;4.644;2023-10-31T00:06:37;99635.41;;;9.84;100.00
38630;BME280;24384;51.988;4.644;2023-10-31T00:09:02;99632.31;;;9.76;100.00
38630;BME280;24384;51.988;4.644;2023-10-31T00:11:28;99631.19;;;9.63;100.00
38630;BME280;24384;51.988;4.644;2023-10-31T00:13:53;99634.75;;;9.62;100.00
38630;BME280;24384;51.988;4.644;2023-10-31T00:16:18;99633.28;;;9.56;100.00
38630;BME280;24384;51.988;4.644;2023-10-31T00:18:44;99626.00;;;9.61;100.00
38630;BME280;24384;51.988;4.644;2023-10-31T00:21:09;99626.69;;;9.65;100.00
38630;BME280;24384;51.988;4.644;2023-10-31T00:23:42;99624.78;;;9.68;100.00
38630;BME280;24384;51.988;4.644;2023-10-31T00:26:07;99629.78;;;9.56;100.00
38630;BME280;24384;51.988;4.644;2023-10-31T00:28:34;99628.25;;;9.52;100.00
38630;BME280;24384;51.988;4.644;2023-10-31T00:31:02;99622.69;;;9.58;100.00
38630;BME280;24384;51.988;4.644;2023-10-31T00:33:29;99637.69;;;9.56;100.00
38630;BME280;24384;51.988;4.644;2023-10-31T00:35:56;99637.81;;;9.53;100.00
38630;BME280;24384;51.988;4.644;2023-10-31T00:38:21;99638.63;;;9.55;100.00
38630;BME280;24384;51.988;4.644;2023-10-31T00:40:46;99634.81;;;9.60;100.00
38630;BME280;24384;51.988;4.644;2023-10-31T00:43:11;99639.09;;;9.63;100.00
38630;BME280;24384;51.988;4.644;2023-10-31T00:45:37;99641.28;;;9.72;100.00
38630;BME280;24384;51.988;4.644;2023-10-31T00:48:02;99646.78;;;9.67;100.00
38630;BME280;24384;51.988;4.644;2023-10-31T00:50:29;99654.22;;;9.77;100.00
38630;BME280;24384;51.988;4.644;2023-10-31T00:52:54;99656.31;;;9.70;100.00
38630;BME280;24384;51.988;4.644;2023-10-31T00:55:19;99651.06;;;9.88;100.00
38630;BME280;24384;51.988;4.644;2023-10-31T00:57:45;99650.97;;;9.72;100.00
38630;BME280;24384;51.988;4.644;2023-10-31T01:00:10;99654.44;;;9.72;100.00
38630;BME280;24384;51.988;4.644;2023-10-31T01:02:36;99659.63;;;9.74;100.00
38630;BME280;24384;51.988;4.644;2023-10-31T01:05:01;99656.84;;;9.77;100.00
38630;BME280;24384;51.988;4.644;2023-10-31T01:07:26;99666.19;;;9.84;100.00
38630;BME280;24384;51.988;4.644;2023-10-31T01:09:51;99674.38;;;9.78;100.00
38630;BME280;24384;51.988;4.644;2023-10-31T01:12:18;99669.41;;;9.72;100.00
38630;BME280;24384;51.988;4.644;2023-10-31T01:14:43;99676.50;;;9.70;100.00
38630;BME280;24384;51.988;4.644;2023-10-31T01:17:09;99670.38;;;9.69;100.00
38630;BME280;24384;51.988;4.644;2023-10-31T01:19:34;99684.41;;;9.70;100.00
38630;BME280;24384;51.988;4.644;2023-10-31T01:21:59;99674.59;;;9.73;100.00
38630;BME280;24384;51.988;4.644;2023-10-31T01:24:25;99681.91;;;9.66;100.00
38630;BME280;24384;51.988;4.644;2023-10-31T01:26:50;99684.09;;;9.76;100.00
38630;BME280;24384;51.988;4.644;2023-10-31T01:29:15;99682.13;;;9.81;100.00
38630;BME280;24384;51.988;4.644;2023-10-31T01:31:41;99677.69;;;9.81;100.00
38630;BME280;24384;51.988;4.644;2023-10-31T01:34:06;99684.91;;;9.78;100.00
38630;BME280;24384;51.988;4.644;2023-10-31T01:36:33;99682.41;;;9.75;100.00
38630;BME280;24384;51.988;4.644;2023-10-31T01:38:58;99688.69;;;9.72;100.00
38630;BME280;24384;51.988;4.644;2023-10-31T01:41:24;99682.72;;;9.68;100.00
38630;BME280;24384;51.988;4.644;2023-10-31T01:43:49;99700.19;;;9.70;100.00
38630;BME280;24384;51.988;4.644;2023-10-31T01:46:14;99701.91;;;9.71;100.00
38630;BME280;24384;51.988;4.644;2023-10-31T01:48:40;99697.72;;;9.66;100.00
38630;BME280;24384;51.988;4.644;2023-10-31T01:51:07;99709.03;;;9.68;100.00
38630;BME280;24384;51.988;4.644;2023-10-31T01:53:33;99710.81;;;9.68;100.00
38630;BME280;24384;51.988;4.644;2023-10-31T01:55:59;99711.53;;;9.72;100.00
38630;BME280;24384;51.988;4.644;2023-10-31T01:58:29;99715.38;;;9.64;100.00
38630;BME280;24384;51.988;4.644;2023-10-31T02:00:55;99722.34;;;9.65;100.00
38630;BME280;24384;51.988;4.644;2023-10-31T02:03:21;99716.72;;;9.73;100.00
38630;BME280;24384;51.988;4.644;2023-10-31T02:05:46;99721.53;;;9.63;100.00
38630;BME280;24384;51.988;4.644;2023-10-31T02:08:11;99724.03;;;9.66;100.00
38630;BME280;24384;51.988;4.644;2023-10-31T02:10:37;99725.97;;;9.63;100.00
38630;BME280;24384;51.988;4.644;2023-10-31T02:13:16;99728.16;;;9.72;100.00
38630;BME280;24384;51.988;4.644;2023-10-31T02:15:41;99740.63;;;9.68;100.00
38630;BME280;24384;51.988;4.644;2023-10-31T02:18:07;99728.38;;;9.67;100.00
38630;BME280;24384;51.988;4.644;2023-10-31T02:20:33;99732.66;;;9.70;100.00
38630;BME280;24384;51.988;4.644;2023-10-31T02:22:59;99731.50;;;9.76;100.00
38630;BME280;24384;51.988;4.644;2023-10-31T02:25:24;99743.13;;;9.72;100.00
38630;BME280;24384;51.988;4.644;2023-10-31T02:27:49;99744.66;;;9.76;100.00
38630;BME280;24384;51.988;4.644;2023-10-31T02:30:15;99741.75;;;9.82;100.00
38630;BME280;24384;51.988;4.644;2023-10-31T02:32:40;99746.88;;;9.85;100.00
38630;BME280;24384;51.988;4.644;2023-10-31T02:35:07;99742.84;;;9.78;100.00
38630;BME280;24384;51.988;4.644;2023-10-31T02:37:32;99748.88;;;9.80;100.00
38630;BME280;24384;51.988;4.644;2023-10-31T02:39:57;99752.13;;;9.85;100.00
38630;BME280;24384;51.988;4.644;2023-10-31T02:42:24;99749.16;;;9.74;100.00
38630;BME280;24384;51.988;4.644;2023-10-31T02:44:50;99758.28;;;9.85;100.00
38630;BME280;24384;51.988;4.644;2023-10-31T02:47:15;99756.00;;;9.78;100.00
38630;BME280;24384;51.988;4.644;2023-10-31T02:49:40;99752.72;;;9.73;100.00
38630;BME280;24384;51.988;4.644;2023-10-31T02:52:06;99763.38;;;9.70;100.00
38630;BME280;24384;51.988;4.644;2023-10-31T02:54:31;99758.78;;;9.75;100.00
38630;BME280;24384;51.988;4.644;2023-10-31T02:56:57;99756.06;;;9.76;100.00
38630;BME280;24384;51.988;4.644;2023-10-31T02:59:23;99772.28;;;9.86;100.00
38630;BME280;24384;51.988;4.644;2023-10-31T03:01:48;99774.16;;;9.84;100.00
38630;BME280;24384;51.988;4.644;2023-10-31T03:04:13;99766.69;;;9.75;100.00
38630;BME280;24384;51.988;4.644;2023-10-31T03:06:38;99767.72;;;9.71;100.00
38630;BME280;24384;51.988;4.644;2023-10-31T03:09:04;99768.38;;;9.76;100.00
38630;BME280;24384;51.988;4.644;2023-10-31T03:11:29;99771.94;;;9.75;100.00
38630;BME280;24384;51.988;4.644;2023-10-31T03:13:55;99776.53;;;9.70;100.00
38630;BME280;24384;51.988;4.644;2023-10-31T03:16:21;99781.75;;;9.71;100.00
38630;BME280;24384;51.988;4.644;2023-10-31T03:18:47;99783.81;;;9.64;100.00
38630;BME280;24384;51.988;4.644;2023-10-31T03:21:12;99784.09;;;9.58;100.00
38630;BME280;24384;51.988;4.644;2023-10-31T03:23:37;99782.31;;;9.59;100.00
38630;BME280;24384;51.988;4.644;2023-10-31T03:26:03;99787.06;;;9.50;100.00
38630;BME280;24384;51.988;4.644;2023-10-31T03:28:28;99789.91;;;9.46;100.00
38630;BME280;24384;51.988;4.644;2023-10-31T03:30:53;99790.47;;;9.53;100.00
38630;BME280;24384;51.988;4.644;2023-10-31T03:33:19;99806.06;;;9.57;100.00
38630;BME280;24384;51.988;4.644;2023-10-31T03:35:44;99804.66;;;9.50;100.00
38630;BME280;24384;51.988;4.644;2023-10-31T03:38:10;99801.97;;;9.52;100.00
38630;BME280;24384;51.988;4.644;2023-10-31T03:40:35;99806.06;;;9.57;100.00
38630;BME280;24384;51.988;4.644;2023-10-31T03:43:02;99805.28;;;9.55;100.00
38630;BME280;24384;51.988;4.644;2023-10-31T03:45:27;99797.47;;;9.54;100.00
38630;BME280;24384;51.988;4.644;2023-10-31T03:47:52;99804.53;;;9.53;100.00
38630;BME280;24384;51.988;4.644;2023-10-31T03:50:17;99805.78;;;9.63;100.00
38630;BME280;24384;51.988;4.644;2023-10-31T03:52:43;99807.94;;;9.55;100.00
38630;BME280;24384;51.988;4.644;2023-10-31T03:55:08;99802.16;;;9.66;100.00
38630;BME280;24384;51.988;4.644;2023-10-31T03:57:33;99804.53;;;9.53;100.00
38630;BME280;24384;51.988;4.644;2023-10-31T04:00:01;99806.66;;;9.64;100.00
38630;BME280;24384;51.988;4.644;2023-10-31T04:02:29;99810.97;;;9.65;100.00
38630;BME280;24384;51.988;4.644;2023-10-31T04:04:55;99810.78;;;9.70;100.00
38630;BME280;24384;51.988;4.644;2023-10-31T04:07:20;99818.66;;;9.70;100.00
38630;BME280;24384;51.988;4.644;2023-10-31T04:09:45;99815.19;;;9.69;100.00
38630;BME280;24384;51.988;4.644;2023-10-31T04:12:10;99810.63;;;9.73;100.00
38630;BME280;24384;51.988;4.644;2023-10-31T04:14:38;99812.69;;;9.66;100.00
38630;BME280;24384;51.988;4.644;2023-10-31T04:17:03;99821.44;;;9.66;100.00
38630;BME280;24384;51.988;4.644;2023-10-31T04:19:31;99816.59;;;9.57;100.00
38630;BME280;24384;51.988;4.644;2023-10-31T04:21:56;99827.53;;;9.48;100.00
38630;BME280;24384;51.988;4.644;2023-10-31T04:24:21;99834.66;;;9.46;100.00
38630;BME280;24384;51.988;4.644;2023-10-31T04:26:47;99829.72;;;9.38;100.00
38630;BME280;24384;51.988;4.644;2023-10-31T04:29:12;99838.19;;;9.45;100.00
38630;BME280;24384;51.988;4.644;2023-10-31T04:31:37;99850.94;;;9.54;100.00
38630;BME280;24384;51.988;4.644;2023-10-31T04:34:08;99846.69;;;9.52;100.00
38630;BME280;24384;51.988;4.644;2023-10-31T04:36:33;99845.69;;;9.54;100.00
38630;BME280;24384;51.988;4.644;2023-10-31T04:38:58;99850.19;;;9.52;100.00
38630;BME280;24384;51.988;4.644;2023-10-31T04:41:23;99852.31;;;9.44;100.00
38630;BME280;24384;51.988;4.644;2023-10-31T04:43:49;99851.63;;;9.39;100.00
38630;BME280;24384;51.988;4.644;2023-10-31T04:46:14;99856.97;;;9.37;100.00
38630;BME280;24384;51.988;4.644;2023-10-31T04:48:39;99865.94;;;9.33;100.00
38630;BME280;24384;51.988;4.644;2023-10-31T04:51:05;99863.38;;;9.31;100.00
38630;BME280;24384;51.988;4.644;2023-10-31T04:53:30;99867.69;;;9.32;100.00
38630;BME280;24384;51.988;4.644;2023-10-31T04:55:57;99858.56;;;9.21;100.00
38630;BME280;24384;51.988;4.644;2023-10-31T04:58:23;99866.78;;;9.13;100.00
38630;BME280;24384;51.988;4.644;2023-10-31T05:00:48;99860.84;;;9.08;100.00
38630;BME280;24384;51.988;4.644;2023-10-31T05:03:13;99867.91;;;9.07;100.00
38630;BME280;24384;51.988;4.644;2023-10-31T05:05:38;99873.22;;;9.06;100.00
38630;BME280;24384;51.988;4.644;2023-10-31T05:08:05;99877.84;;;9.01;100.00
38630;BME280;24384;51.988;4.644;2023-10-31T05:10:30;99880.34;;;9.04;100.00
38630;BME280;24384;51.988;4.644;2023-10-31T05:12:55;99884.72;;;9.03;100.00
38630;BME280;24384;51.988;4.644;2023-10-31T05:15:22;99889.13;;;9.03;100.00
38630;BME280;24384;51.988;4.644;2023-10-31T05:17:47;99891.81;;;9.01;100.00
38630;BME280;24384;51.988;4.644;2023-10-31T05:20:12;99894.72;;;8.95;100.00
38630;BME280;24384;51.988;4.644;2023-10-31T05:22:38;99897.16;;;9.00;100.00
38630;BME280;24384;51.988;4.644;2023-10-31T05:25:05;99903.31;;;8.99;100.00
38630;BME280;24384;51.988;4.644;2023-10-31T05:27:31;99905.75;;;9.03;100.00
38630;BME280;24384;51.988;4.644;2023-10-31T05:29:56;99895.91;;;9.08;100.00
38630;BME280;24384;51.988;4.644;2023-10-31T05:32:21;99907.66;;;9.00;100.00
38630;BME280;24384;51.988;4.644;2023-10-31T05:34:47;99901.13;;;9.10;100.00
38630;BME280;24384;51.988;4.644;2023-10-31T05:37:12;99914.47;;;9.05;100.00
38630;BME280;24384;51.988;4.644;2023-10-31T05:39:37;99911.31;;;9.18;100.00
38630;BME280;24384;51.988;4.644;2023-10-31T05:42:03;99911.69;;;9.08;100.00
38630;BME280;24384;51.988;4.644;2023-10-31T05:44:28;99915.44;;;9.03;100.00
38630;BME280;24384;51.988;4.644;2023-10-31T05:46:53;99911.75;;;9.07;100.00
38630;BME280;24384;51.988;4.644;2023-10-31T05:49:19;99919.72;;;9.05;100.00
38630;BME280;24384;51.988;4.644;2023-10-31T05:51:44;99918.78;;;9.06;100.00
38630;BME280;24384;51.988;4.644;2023-10-31T05:54:10;99914.78;;;8.98;100.00
38630;BME280;24384;51.988;4.644;2023-10-31T05:56:35;99914.53;;;9.04;100.00
38630;BME280;24384;51.988;4.644;2023-10-31T05:59:00;99913.00;;;8.98;100.00
38630;BME280;24384;51.988;4.644;2023-10-31T06:01:25;99918.19;;;9.00;100.00
38630;BME280;24384;51.988;4.644;2023-10-31T06:03:50;99923.50;;;8.98;100.00
38630;BME280;24384;51.988;4.644;2023-10-31T06:06:16;99920.41;;;8.88;100.00
38630;BME280;24384;51.988;4.644;2023-10-31T06:08:41;99924.47;;;8.95;100.00
38630;BME280;24384;51.988;4.644;2023-10-31T06:11:07;99923.56;;;8.96;100.00
38630;BME280;24384;51.988;4.644;2023-10-31T06:13:33;99920.94;;;8.96;100.00
38630;BME280;24384;51.988;4.644;2023-10-31T06:16:00;99936.06;;;8.91;100.00
38630;BME280;24384;51.988;4.644;2023-10-31T06:18:25;99937.69;;;8.94;100.00
38630;BME280;24384;51.988;4.644;2023-10-31T06:20:52;99938.56;;;8.94;100.00
38630;BME280;24384;51.988;4.644;2023-10-31T06:23:17;99941.44;;;8.88;100.00
38630;BME280;24384;51.988;4.644;2023-10-31T06:25:42;99940.50;;;8.89;100.00
38630;BME280;24384;51.988;4.644;2023-10-31T06:28:07;99947.38;;;8.93;100.00
38630;BME280;24384;51.988;4.644;2023-10-31T06:30:33;99941.44;;;8.88;100.00
38630;BME280;24384;51.988;4.644;2023-10-31T06:32:58;99950.50;;;8.81;100.00
38630;BME280;24384;51.988;4.644;2023-10-31T06:35:24;99962.59;;;8.85;100.00
38630;BME280;24384;51.988;4.644;2023-10-31T06:37:50;99963.69;;;8.80;100.00
38630;BME280;24384;51.988;4.644;2023-10-31T06:40:15;99956.91;;;8.74;100.00
38630;BME280;24384;51.988;4.644;2023-10-31T06:42:40;99969.97;;;8.75;100.00
38630;BME280;24384;51.988;4.644;2023-10-31T06:45:06;99968.09;;;8.79;100.00
38630;BME280;24384;51.988;4.644;2023-10-31T06:47:31;99971.88;;;8.72;100.00
38630;BME280;24384;51.988;4.644;2023-10-31T06:49:56;99968.59;;;8.67;100.00
38630;BME280;24384;51.988;4.644;2023-10-31T06:52:22;99974.88;;;8.63;100.00
38630;BME280;24384;51.988;4.644;2023-10-31T06:54:48;99975.53;;;8.68;100.00
38630;BME280;24384;51.988;4.644;2023-10-31T06:57:14;99980.38;;;8.56;100.00
38630;BME280;24384;51.988;4.644;2023-10-31T06:59:41;99988.50;;;8.50;100.00
38630;BME280;24384;51.988;4.644;2023-10-31T07:02:06;99994.59;;;8.51;100.00
38630;BME280;24384;51.988;4.644;2023-10-31T07:04:32;100003.91;;;8.59;100.00
38630;BME280;24384;51.988;4.644;2023-10-31T07:06:57;100008.19;;;8.62;100.00
38630;BME280;24384;51.988;4.644;2023-10-31T07:09:23;100007.78;;;8.73;100.00
38630;BME280;24384;51.988;4.644;2023-10-31T07:11:49;100010.91;;;8.83;100.00
38630;BME280;24384;51.988;4.644;2023-10-31T07:14:14;100006.31;;;8.88;100.00
38630;BME280;24384;51.988;4.644;2023-10-31T07:16:39;100007.31;;;9.07;100.00
38630;BME280;24384;51.988;4.644;2023-10-31T07:19:05;99996.22;;;9.21;100.00
38630;BME280;24384;51.988;4.644;2023-10-31T07:21:30;100006.69;;;9.23;100.00
38630;BME280;24384;51.988;4.644;2023-10-31T07:23:55;100007.28;;;9.29;100.00
38630;BME280;24384;51.988;4.644;2023-10-31T07:26:21;100003.41;;;9.38;100.00
38630;BME280;24384;51.988;4.644;2023-10-31T07:28:46;100011.78;;;9.48;100.00
38630;BME280;24384;51.988;4.644;2023-10-31T07:31:13;100011.84;;;9.46;100.00
38630;BME280;24384;51.988;4.644;2023-10-31T07:33:39;100012.84;;;9.44;100.00
38630;BME280;24384;51.988;4.644;2023-10-31T07:36:04;100026.66;;;9.49;100.00
38630;BME280;24384;51.988;4.644;2023-10-31T07:38:30;100026.59;;;9.50;100.00
38630;BME280;24384;51.988;4.644;2023-10-31T07:40:55;100034.38;;;9.54;100.00
38630;BME280;24384;51.988;4.644;2023-10-31T07:43:20;100034.91;;;9.62;100.00
38630;BME280;24384;51.988;4.644;2023-10-31T07:45:45;100028.66;;;9.64;100.00
38630;BME280;24384;51.988;4.644;2023-10-31T07:48:11;100024.72;;;9.75;100.00
38630;BME280;24384;51.988;4.644;2023-10-31T07:50:36;100031.34;;;9.83;100.00
38630;BME280;24384;51.988;4.644;2023-10-31T07:53:01;100032.69;;;9.73;100.00
38630;BME280;24384;51.988;4.644;2023-10-31T07:55:26;100034.72;;;9.87;100.00
38630;BME280;24384;51.988;4.644;2023-10-31T07:57:52;100041.16;;;10.00;100.00
38630;BME280;24384;51.988;4.644;2023-10-31T08:00:19;100032.84;;;10.10;100.00
38630;BME280;24384;51.988;4.644;2023-10-31T08:02:44;100028.41;;;10.12;100.00
38630;BME280;24384;51.988;4.644;2023-10-31T08:05:10;100028.31;;;10.13;100.00
38630;BME280;24384;51.988;4.644;2023-10-31T08:07:36;100038.47;;;10.23;100.00
38630;BME280;24384;51.988;4.644;2023-10-31T08:10:01;100034.75;;;10.27;100.00
38630;BME280;24384;51.988;4.644;2023-10-31T08:12:27;100042.91;;;10.20;100.00
38630;BME280;24384;51.988;4.644;2023-10-31T08:14:52;100049.34;;;10.15;100.00
38630;BME280;24384;51.988;4.644;2023-10-31T08:17:17;100041.56;;;10.12;100.00
38630;BME280;24384;51.988;4.644;2023-10-31T08:19:42;100043.13;;;10.16;100.00
38630;BME280;24384;51.988;4.644;2023-10-31T08:22:08;100045.13;;;10.11;100.00
38630;BME280;24384;51.988;4.644;2023-10-31T08:24:33;100042.72;;;10.46;100.00
38630;BME280;24384;51.988;4.644;2023-10-31T08:27:01;100042.59;;;10.87;100.00
38630;BME280;24384;51.988;4.644;2023-10-31T08:29:26;100051.19;;;11.46;100.00
38630;BME280;24384;51.988;4.644;2023-10-31T08:31:51;100049.91;;;11.90;100.00
38630;BME280;24384;51.988;4.644;2023-10-31T08:34:17;100055.56;;;12.50;100.00
38630;BME280;24384;51.988;4.644;2023-10-31T08:36:42;100063.28;;;12.71;100.00
38630;BME280;24384;51.988;4.644;2023-10-31T08:39:07;100060.16;;;12.96;100.00
38630;BME280;24384;51.988;4.644;2023-10-31T08:41:33;100069.19;;;12.92;100.00
38630;BME280;24384;51.988;4.644;2023-10-31T08:43:58;100067.47;;;12.75;100.00
38630;BME280;24384;51.988;4.644;2023-10-31T08:46:24;100068.75;;;12.68;100.00
38630;BME280;24384;51.988;4.644;2023-10-31T08:48:50;100071.50;;;12.82;100.00
38630;BME280;24384;51.988;4.644;2023-10-31T08:51:15;100071.72;;;12.62;100.00
38630;BME280;24384;51.988;4.644;2023-10-31T08:53:40;100063.66;;;12.81;100.00
38630;BME280;24384;51.988;4.644;2023-10-31T08:56:06;100070.31;;;13.04;100.00
38630;BME280;24384;51.988;4.644;2023-10-31T08:58:33;100077.97;;;12.93;100.00
38630;BME280;24384;51.988;4.644;2023-10-31T09:00:58;100081.75;;;12.88;100.00
38630;BME280;24384;51.988;4.644;2023-10-31T09:03:23;100081.81;;;12.71;100.00
38630;BME280;24384;51.988;4.644;2023-10-31T09:05:49;100078.94;;;12.42;100.00
38630;BME280;24384;51.988;4.644;2023-10-31T09:08:14;100080.66;;;12.26;100.00
38630;BME280;24384;51.988;4.644;2023-10-31T09:10:41;100083.16;;;11.94;100.00
38630;BME280;24384;51.988;4.644;2023-10-31T09:13:08;100085.66;;;11.97;100.00
38630;BME280;24384;51.988;4.644;2023-10-31T09:15:33;100091.31;;;11.89;100.00
38630;BME280;24384;51.988;4.644;2023-10-31T09:18:00;100095.91;;;11.86;100.00
38630;BME280;24384;51.988;4.644;2023-10-31T09:20:25;100102.66;;;11.91;100.00
38630;BME280;24384;51.988;4.644;2023-10-31T09:22:50;100101.44;;;12.16;100.00
38630;BME280;24384;51.988;4.644;2023-10-31T09:25:16;100101.38;;;12.17;100.00
38630;BME280;24384;51.988;4.644;2023-10-31T09:27:41;100113.00;;;12.48;100.00
38630;BME280;24384;51.988;4.644;2023-10-31T09:30:10;100121.63;;;12.52;100.00
38630;BME280;24384;51.988;4.644;2023-10-31T09:32:35;100121.25;;;12.42;100.00
38630;BME280;24384;51.988;4.644;2023-10-31T09:35:01;100122.41;;;12.36;100.00
38630;BME280;24384;51.988;4.644;2023-10-31T09:37:26;100122.81;;;12.29;100.00
38630;BME280;24384;51.988;4.644;2023-10-31T09:39:52;100118.00;;;12.20;100.00
38630;BME280;24384;51.988;4.644;2023-10-31T09:42:17;100120.88;;;12.15;100.00
38630;BME280;24384;51.988;4.644;2023-10-31T09:44:42;100126.56;;;12.07;100.00
38630;BME280;24384;51.988;4.644;2023-10-31T09:47:07;100123.06;;;12.07;100.00
38630;BME280;24384;51.988;4.644;2023-10-31T09:49:33;100126.53;;;11.90;100.00
38630;BME280;24384;51.988;4.644;2023-10-31T09:51:59;100131.84;;;12.07;100.00
38630;BME280;24384;51.988;4.644;2023-10-31T09:54:25;100134.94;;;12.84;100.00
38630;BME280;24384;51.988;4.644;2023-10-31T09:56:52;100131.97;;;13.70;100.00
38630;BME280;24384;51.988;4.644;2023-10-31T09:59:17;100137.59;;;15.27;100.00
38630;BME280;24384;51.988;4.644;2023-10-31T10:01:42;100141.50;;;16.81;100.00
38630;BME280;24384;51.988;4.644;2023-10-31T10:04:08;100139.50;;;17.35;100.00
38630;BME280;24384;51.988;4.644;2023-10-31T10:06:34;100151.25;;;17.94;96.94
38630;BME280;24384;51.988;4.644;2023-10-31T10:09:00;100149.16;;;17.73;96.12
38630;BME280;24384;51.988;4.644;2023-10-31T10:11:28;100155.00;;;16.53;100.00
38630;BME280;24384;51.988;4.644;2023-10-31T10:13:53;100165.59;;;15.32;100.00
38630;BME280;24384;51.988;4.644;2023-10-31T10:16:30;100156.31;;;14.67;100.00
38630;BME280;24384;51.988;4.644;2023-10-31T10:18:56;100160.53;;;14.11;100.00
38630;BME280;24384;51.988;4.644;2023-10-31T10:21:21;100171.53;;;13.73;100.00
38630;BME280;24384;51.988;4.644;2023-10-31T10:23:46;100172.47;;;13.24;100.00
38630;BME280;24384;51.988;4.644;2023-10-31T10:26:14;100175.63;;;12.81;100.00
38630;BME280;24384;51.988;4.644;2023-10-31T10:28:39;100182.06;;;12.60;100.00
38630;BME280;24384;51.988;4.644;2023-10-31T10:31:05;100181.44;;;12.37;100.00
38630;BME280;24384;51.988;4.644;2023-10-31T10:33:33;100185.09;;;12.17;100.00
38630;BME280;24384;51.988;4.644;2023-10-31T10:35:59;100179.03;;;11.97;100.00
38630;BME280;24384;51.988;4.644;2023-10-31T10:38:25;100180.59;;;11.82;100.00
38630;BME280;24384;51.988;4.644;2023-10-31T10:40:53;100189.03;;;11.72;100.00
38630;BME280;24384;51.988;4.644;2023-10-31T10:43:26;100186.75;;;11.64;100.00
38630;BME280;24384;51.988;4.644;2023-10-31T10:45:55;100179.06;;;11.59;100.00
38630;BME280;24384;51.988;4.644;2023-10-31T10:48:21;100190.84;;;11.52;100.00
38630;BME280;24384;51.988;4.644;2023-10-31T10:50:52;100192.00;;;11.46;100.00
38630;BME280;24384;51.988;4.644;2023-10-31T10:53:23;100188.13;;;11.54;100.00
38630;BME280;24384;51.988;4.644;2023-10-31T10:55:55;100192.91;;;11.64;100.00
38630;BME280;24384;51.988;4.644;2023-10-31T10:58:41;100187.97;;;11.76;100.00
38630;BME280;24384;51.988;4.644;2023-10-31T11:01:10;100192.88;;;11.83;100.00
38630;BME280;24384;51.988;4.644;2023-10-31T11:03:35;100199.22;;;11.79;100.00
38630;BME280;24384;51.988;4.644;2023-10-31T11:06:02;100196.88;;;11.73;100.00
38630;BME280;24384;51.988;4.644;2023-10-31T11:08:28;100202.25;;;11.72;100.00
38630;BME280;24384;51.988;4.644;2023-10-31T11:10:55;100203.19;;;11.52;100.00
38630;BME280;24384;51.988;4.644;2023-10-31T11:13:22;100205.63;;;11.37;100.00
38630;BME280;24384;51.988;4.644;2023-10-31T11:15:51;100205.53;;;11.20;100.00
38630;BME280;24384;51.988;4.644;2023-10-31T11:18:19;100205.44;;;11.78;100.00
38630;BME280;24384;51.988;4.644;2023-10-31T11:20:45;100208.06;;;12.51;100.00
38630;BME280;24384;51.988;4.644;2023-10-31T11:23:11;100209.66;;;12.71;100.00
38630;BME280;24384;51.988;4.644;2023-10-31T11:25:42;100208.53;;;12.42;100.00
38630;BME280;24384;51.988;4.644;2023-10-31T11:28:14;100203.94;;;12.28;100.00
38630;BME280;24384;51.988;4.644;2023-10-31T11:30:40;100210.97;;;12.10;100.00
38630;BME280;24384;51.988;4.644;2023-10-31T11:33:06;100210.97;;;11.93;100.00
38630;BME280;24384;51.988;4.644;2023-10-31T11:35:38;100222.94;;;12.00;100.00
38630;BME280;24384;51.988;4.644;2023-10-31T11:38:05;100212.38;;;12.52;100.00
38630;BME280;24384;51.988;4.644;2023-10-31T11:40:32;100211.38;;;13.06;100.00
38630;BME280;24384;51.988;4.644;2023-10-31T11:42:58;100215.09;;;13.19;100.00
38630;BME280;24384;51.988;4.644;2023-10-31T11:45:34;100209.09;;;13.81;100.00
38630;BME280;24384;51.988;4.644;2023-10-31T11:48:01;100211.31;;;13.89;100.00
38630;BME280;24384;51.988;4.644;2023-10-31T11:50:26;100214.03;;;13.71;100.00
38630;BME280;24384;51.988;4.644;2023-10-31T11:53:05;100213.53;;;13.49;100.00
38630;BME280;24384;51.988;4.644;2023-10-31T11:55:35;100208.31;;;13.47;100.00
38630;BME280;24384;51.988;4.644;2023-10-31T11:58:18;100212.72;;;14.41;100.00
38630;BME280;24384;51.988;4.644;2023-10-31T12:00:45;100200.09;;;14.75;100.00
38630;BME280;24384;51.988;4.644;2023-10-31T12:03:11;100206.09;;;14.48;100.00
38630;BME280;24384;51.988;4.644;2023-10-31T12:05:36;100212.72;;;14.10;100.00
38630;BME280;24384;51.988;4.644;2023-10-31T12:08:01;100217.97;;;13.64;100.00
38630;BME280;24384;51.988;4.644;2023-10-31T12:10:28;100216.19;;;13.65;100.00
38630;BME280;24384;51.988;4.644;2023-10-31T12:12:56;100207.81;;;13.56;100.00
38630;BME280;24384;51.988;4.644;2023-10-31T12:15:22;100212.75;;;14.25;100.00
38630;BME280;24384;51.988;4.644;2023-10-31T12:17:48;100211.94;;;14.39;100.00
38630;BME280;24384;51.988;4.644;2023-10-31T12:20:14;100219.22;;;14.05;100.00
38630;BME280;24384;51.988;4.644;2023-10-31T12:22:41;100215.22;;;13.82;100.00
38630;BME280;24384;51.988;4.644;2023-10-31T12:25:07;100219.50;;;13.36;100.00
38630;BME280;24384;51.988;4.644;2023-10-31T12:27:47;100218.81;;;13.65;100.00
38630;BME280;24384;51.988;4.644;2023-10-31T12:30:16;100218.56;;;14.01;100.00
38630;BME280;24384;51.988;4.644;2023-10-31T12:32:41;100217.38;;;13.59;100.00
38630;BME280;24384;51.988;4.644;2023-10-31T12:35:12;100227.13;;;13.25;100.00
38630;BME280;24384;51.988;4.644;2023-10-31T12:37:46;100227.19;;;13.07;100.00
38630;BME280;24384;51.988;4.644;2023-10-31T12:40:14;100225.16;;;12.79;100.00
38630;BME280;24384;51.988;4.644;2023-10-31T12:42:42;100233.78;;;12.65;100.00
38630;BME280;24384;51.988;4.644;2023-10-31T12:45:08;100228.75;;;12.61;100.00
38630;BME280;24384;51.988;4.644;2023-10-31T12:47:34;100221.34;;;12.50;100.00